sensor_id;sensor_type;location;lat;lon;timestamp;P1;P2;P0
35654;PMS1003;21773;50.010;19.972;2022-07-29T00:00:02;22.00;22.00;20.00
35654;PMS1003;21773;50.010;19.972;2022-07-29T00:03:06;17.40;16.00;15.20
35654;PMS1003;21773;50.010;19.972;2022-07-29T00:06:10;17.00;17.00;15.60
35654;PMS1003;21773;50.010;19.972;2022-07-29T00:09:14;16.60;16.60;15.60
35654;PMS1003;21773;50.010;19.972;2022-07-29T00:12:17;18.00;17.60;17.00
35654;PMS1003;21773;50.010;19.972;2022-07-29T00:15:28;17.80;16.80;15.80
35654;PMS1003;21773;50.010;19.972;2022-07-29T00:18:32;18.60;18.60;17.80
35654;PMS1003;21773;50.010;19.972;2022-07-29T00:21:35;19.80;17.00;15.80
35654;PMS1003;21773;50.010;19.972;2022-07-29T00:24:39;18.20;17.00;15.20
35654;PMS1003;21773;50.010;19.972;2022-07-29T00:27:42;20.00;18.25;17.00
35654;PMS1003;21773;50.010;19.972;2022-07-29T00:30:48;19.60;18.00;16.60
35654;PMS1003;21773;50.010;19.972;2022-07-29T00:33:52;21.00;21.00;19.60
35654;PMS1003;21773;50.010;19.972;2022-07-29T00:36:58;19.40;19.00;17.60
35654;PMS1003;21773;50.010;19.972;2022-07-29T00:40:00;21.00;20.80;19.60
35654;PMS1003;21773;50.010;19.972;2022-07-29T00:43:04;18.60;18.60;17.60
35654;PMS1003;21773;50.010;19.972;2022-07-29T00:46:09;21.00;20.20;19.00
35654;PMS1003;21773;50.010;19.972;2022-07-29T00:49:13;16.80;16.80;15.80
35654;PMS1003;21773;50.010;19.972;2022-07-29T00:52:16;18.20;17.60;16.60
35654;PMS1003;21773;50.010;19.972;2022-07-29T00:55:20;13.80;13.80;13.00
35654;PMS1003;21773;50.010;19.972;2022-07-29T00:58:23;14.20;14.00;13.80
35654;PMS1003;21773;50.010;19.972;2022-07-29T01:01:28;20.60;20.60;18.00
35654;PMS1003;21773;50.010;19.972;2022-07-29T01:04:32;15.80;15.80;14.80
35654;PMS1003;21773;50.010;19.972;2022-07-29T01:07:35;17.80;15.80;15.00
35654;PMS1003;21773;50.010;19.972;2022-07-29T01:10:39;17.60;17.60;16.60
35654;PMS1003;21773;50.010;19.972;2022-07-29T01:13:45;17.80;17.00;15.80
35654;PMS1003;21773;50.010;19.972;2022-07-29T01:16:54;15.80;15.20;15.00
35654;PMS1003;21773;50.010;19.972;2022-07-29T01:20:05;19.50;19.00;18.00
35654;PMS1003;21773;50.010;19.972;2022-07-29T01:26:45;18.75;18.00;17.00
35654;PMS1003;21773;50.010;19.972;2022-07-29T01:29:53;18.00;17.00;15.60
35654;PMS1003;21773;50.010;19.972;2022-07-29T01:33:00;19.00;18.40;16.60
35654;PMS1003;21773;50.010;19.972;2022-07-29T01:36:10;18.50;17.00;16.00
35654;PMS1003;21773;50.010;19.972;2022-07-29T01:39:17;16.80;15.80;14.80
35654;PMS1003;21773;50.010;19.972;2022-07-29T01:42:27;15.00;14.50;13.25
35654;PMS1003;21773;50.010;19.972;2022-07-29T01:45:38;17.80;17.00;15.80
35654;PMS1003;21773;50.010;19.972;2022-07-29T01:48:47;20.40;20.00;19.40
35654;PMS1003;21773;50.010;19.972;2022-07-29T01:51:57;19.20;18.00;17.00
35654;PMS1003;21773;50.010;19.972;2022-07-29T01:55:07;17.40;16.80;16.40
35654;PMS1003;21773;50.010;19.972;2022-07-29T01:58:15;21.50;20.50;19.50
35654;PMS1003;21773;50.010;19.972;2022-07-29T02:01:23;20.60;20.60;19.60
35654;PMS1003;21773;50.010;19.972;2022-07-29T02:04:27;19.00;18.60;18.00
35654;PMS1003;21773;50.010;19.972;2022-07-29T02:07:34;15.25;15.25;15.00
35654;PMS1003;21773;50.010;19.972;2022-07-29T02:10:40;17.33;15.67;15.67
35654;PMS1003;21773;50.010;19.972;2022-07-29T02:13:46;14.20;14.00;13.20
35654;PMS1003;21773;50.010;19.972;2022-07-29T02:16:53;17.80;17.80;16.60
35654;PMS1003;21773;50.010;19.972;2022-07-29T02:19:59;17.75;17.50;15.75
35654;PMS1003;21773;50.010;19.972;2022-07-29T02:23:04;18.00;17.00;16.00
35654;PMS1003;21773;50.010;19.972;2022-07-29T02:26:09;27.00;26.00;23.00
35654;PMS1003;21773;50.010;19.972;2022-07-29T02:29:15;22.60;22.40;20.60
35654;PMS1003;21773;50.010;19.972;2022-07-29T02:32:23;15.00;15.00;15.00
35654;PMS1003;21773;50.010;19.972;2022-07-29T02:35:28;18.20;17.20;16.20
35654;PMS1003;21773;50.010;19.972;2022-07-29T02:38:35;26.60;26.00;22.60
35654;PMS1003;21773;50.010;19.972;2022-07-29T02:41:58;15.60;14.40;13.60
35654;PMS1003;21773;50.010;19.972;2022-07-29T02:45:06;16.50;15.50;14.50
35654;PMS1003;21773;50.010;19.972;2022-07-29T02:48:13;17.60;16.60;16.00
35654;PMS1003;21773;50.010;19.972;2022-07-29T02:51:19;23.50;23.50;21.75
35654;PMS1003;21773;50.010;19.972;2022-07-29T02:54:46;20.75;20.00;18.50
35654;PMS1003;21773;50.010;19.972;2022-07-29T02:57:55;18.75;18.00;17.50
35654;PMS1003;21773;50.010;19.972;2022-07-29T03:01:04;19.80;19.80;18.80
35654;PMS1003;21773;50.010;19.972;2022-07-29T03:04:23;27.00;25.60;23.00
35654;PMS1003;21773;50.010;19.972;2022-07-29T03:07:30;20.20;20.20;19.20
35654;PMS1003;21773;50.010;19.972;2022-07-29T03:10:34;20.00;19.00;18.60
35654;PMS1003;21773;50.010;19.972;2022-07-29T03:13:40;20.00;19.40;19.00
35654;PMS1003;21773;50.010;19.972;2022-07-29T03:16:44;19.33;18.67;18.33
35654;PMS1003;21773;50.010;19.972;2022-07-29T03:19:49;22.60;21.60;20.00
35654;PMS1003;21773;50.010;19.972;2022-07-29T03:22:53;22.40;22.40;21.20
35654;PMS1003;21773;50.010;19.972;2022-07-29T03:25:57;17.20;17.20;16.20
35654;PMS1003;21773;50.010;19.972;2022-07-29T03:29:00;27.80;27.80;23.80
35654;PMS1003;21773;50.010;19.972;2022-07-29T03:32:04;32.80;31.00;26.20
35654;PMS1003;21773;50.010;19.972;2022-07-29T03:35:11;24.75;24.50;22.25
35654;PMS1003;21773;50.010;19.972;2022-07-29T03:38:14;24.50;24.50;22.50
35654;PMS1003;21773;50.010;19.972;2022-07-29T03:41:18;34.20;32.20;27.00
35654;PMS1003;21773;50.010;19.972;2022-07-29T03:44:24;32.75;31.75;26.75
35654;PMS1003;21773;50.010;19.972;2022-07-29T03:47:30;27.25;26.50;23.25
35654;PMS1003;21773;50.010;19.972;2022-07-29T03:50:52;36.00;33.00;27.75
35654;PMS1003;21773;50.010;19.972;2022-07-29T03:53:56;27.20;26.60;23.00
35654;PMS1003;21773;50.010;19.972;2022-07-29T03:57:01;28.67;27.33;24.00
35654;PMS1003;21773;50.010;19.972;2022-07-29T04:00:06;29.75;29.25;25.00
35654;PMS1003;21773;50.010;19.972;2022-07-29T04:03:11;23.20;22.60;21.00
35654;PMS1003;21773;50.010;19.972;2022-07-29T04:06:17;26.00;25.75;23.00
35654;PMS1003;21773;50.010;19.972;2022-07-29T04:09:21;34.20;32.60;27.60
35654;PMS1003;21773;50.010;19.972;2022-07-29T04:12:24;26.40;26.00;23.00
35654;PMS1003;21773;50.010;19.972;2022-07-29T04:15:27;27.40;27.00;23.00
35654;PMS1003;21773;50.010;19.972;2022-07-29T04:18:32;33.20;32.00;27.00
35654;PMS1003;21773;50.010;19.972;2022-07-29T04:21:39;25.80;25.60;22.60
35654;PMS1003;21773;50.010;19.972;2022-07-29T04:24:42;34.00;32.00;27.00
35654;PMS1003;21773;50.010;19.972;2022-07-29T04:27:46;26.60;26.60;23.20
35654;PMS1003;21773;50.010;19.972;2022-07-29T04:31:04;16.40;15.80;14.80
35654;PMS1003;21773;50.010;19.972;2022-07-29T04:34:08;17.50;16.50;16.50
35654;PMS1003;21773;50.010;19.972;2022-07-29T04:37:13;18.40;17.40;17.40
35654;PMS1003;21773;50.010;19.972;2022-07-29T04:40:16;19.80;18.60;17.80
35654;PMS1003;21773;50.010;19.972;2022-07-29T04:43:20;18.75;17.75;16.75
35654;PMS1003;21773;50.010;19.972;2022-07-29T04:46:24;18.50;18.25;17.00
35654;PMS1003;21773;50.010;19.972;2022-07-29T04:49:27;32.33;31.33;26.67
35654;PMS1003;21773;50.010;19.972;2022-07-29T04:52:32;22.40;22.20;20.60
35654;PMS1003;21773;50.010;19.972;2022-07-29T04:55:36;17.80;17.80;17.00
35654;PMS1003;21773;50.010;19.972;2022-07-29T04:58:39;23.50;22.50;20.50
35654;PMS1003;21773;50.010;19.972;2022-07-29T05:01:43;17.75;17.50;16.75
35654;PMS1003;21773;50.010;19.972;2022-07-29T05:04:46;17.20;17.20;16.20
35654;PMS1003;21773;50.010;19.972;2022-07-29T05:07:51;14.60;14.20;14.00
35654;PMS1003;21773;50.010;19.972;2022-07-29T05:10:55;19.50;19.00;18.50
35654;PMS1003;21773;50.010;19.972;2022-07-29T05:14:12;22.50;22.50;20.50
35654;PMS1003;21773;50.010;19.972;2022-07-29T05:17:16;10.50;9.50;9.00
35654;PMS1003;21773;50.010;19.972;2022-07-29T05:20:19;20.50;19.75;19.75
35654;PMS1003;21773;50.010;19.972;2022-07-29T05:23:29;9.20;9.00;9.00
35654;PMS1003;21773;50.010;19.972;2022-07-29T05:26:35;13.40;13.40;13.40
35654;PMS1003;21773;50.010;19.972;2022-07-29T05:29:39;16.67;16.00;15.67
35654;PMS1003;21773;50.010;19.972;2022-07-29T05:32:46;20.60;20.60;19.80
35654;PMS1003;21773;50.010;19.972;2022-07-29T05:35:49;22.75;22.75;20.75
35654;PMS1003;21773;50.010;19.972;2022-07-29T05:38:54;14.40;11.00;10.00
35654;PMS1003;21773;50.010;19.972;2022-07-29T05:41:57;16.80;15.80;15.60
35654;PMS1003;21773;50.010;19.972;2022-07-29T05:45:01;22.60;22.60;21.00
35654;PMS1003;21773;50.010;19.972;2022-07-29T05:48:04;16.75;14.75;14.25
35654;PMS1003;21773;50.010;19.972;2022-07-29T05:51:09;11.40;11.40;10.40
35654;PMS1003;21773;50.010;19.972;2022-07-29T05:54:14;18.20;17.40;17.40
35654;PMS1003;21773;50.010;19.972;2022-07-29T05:57:18;15.20;15.00;14.00
35654;PMS1003;21773;50.010;19.972;2022-07-29T06:00:22;17.80;17.20;16.80
35654;PMS1003;21773;50.010;19.972;2022-07-29T06:03:27;17.00;16.40;16.00
35654;PMS1003;21773;50.010;19.972;2022-07-29T06:06:31;14.50;14.50;13.25
35654;PMS1003;21773;50.010;19.972;2022-07-29T06:09:35;19.00;17.00;16.00
35654;PMS1003;21773;50.010;19.972;2022-07-29T06:12:39;19.60;18.00;17.60
35654;PMS1003;21773;50.010;19.972;2022-07-29T06:15:43;16.00;15.20;15.00
35654;PMS1003;21773;50.010;19.972;2022-07-29T06:18:46;24.40;24.00;22.00
35654;PMS1003;21773;50.010;19.972;2022-07-29T06:21:50;14.00;13.00;13.00
35654;PMS1003;21773;50.010;19.972;2022-07-29T06:24:54;17.75;16.50;15.75
35654;PMS1003;21773;50.010;19.972;2022-07-29T06:27:58;22.20;21.40;19.80
35654;PMS1003;21773;50.010;19.972;2022-07-29T06:31:01;12.00;12.00;11.20
35654;PMS1003;21773;50.010;19.972;2022-07-29T06:34:05;19.80;19.40;18.80
35654;PMS1003;21773;50.010;19.972;2022-07-29T06:37:08;19.00;17.50;17.00
35654;PMS1003;21773;50.010;19.972;2022-07-29T06:40:17;14.80;14.80;13.80
35654;PMS1003;21773;50.010;19.972;2022-07-29T06:43:39;12.40;12.00;12.00
35654;PMS1003;21773;50.010;19.972;2022-07-29T06:46:55;15.40;15.40;15.40
35654;PMS1003;21773;50.010;19.972;2022-07-29T06:49:59;14.00;14.00;13.80
35654;PMS1003;21773;50.010;19.972;2022-07-29T06:53:03;16.00;16.00;15.00
35654;PMS1003;21773;50.010;19.972;2022-07-29T06:56:08;14.60;14.00;13.60
35654;PMS1003;21773;50.010;19.972;2022-07-29T06:59:12;12.60;12.60;12.00
35654;PMS1003;21773;50.010;19.972;2022-07-29T07:02:15;18.60;17.80;17.00
35654;PMS1003;21773;50.010;19.972;2022-07-29T07:05:18;19.00;19.00;18.20
35654;PMS1003;21773;50.010;19.972;2022-07-29T07:08:22;12.80;12.00;11.00
35654;PMS1003;21773;50.010;19.972;2022-07-29T07:11:27;8.60;8.20;7.40
35654;PMS1003;21773;50.010;19.972;2022-07-29T07:14:32;11.00;11.00;10.00
35654;PMS1003;21773;50.010;19.972;2022-07-29T07:17:35;14.20;14.20;14.20
35654;PMS1003;21773;50.010;19.972;2022-07-29T07:20:39;16.40;16.40;15.60
35654;PMS1003;21773;50.010;19.972;2022-07-29T07:23:43;13.60;12.00;12.00
35654;PMS1003;21773;50.010;19.972;2022-07-29T07:26:48;15.40;15.40;14.40
35654;PMS1003;21773;50.010;19.972;2022-07-29T07:29:52;13.00;13.00;12.00
35654;PMS1003;21773;50.010;19.972;2022-07-29T07:32:56;11.00;10.60;10.00
35654;PMS1003;21773;50.010;19.972;2022-07-29T07:35:59;12.60;11.60;11.60
35654;PMS1003;21773;50.010;19.972;2022-07-29T07:39:02;22.25;19.25;19.25
35654;PMS1003;21773;50.010;19.972;2022-07-29T07:42:08;11.25;11.00;11.00
35654;PMS1003;21773;50.010;19.972;2022-07-29T07:45:14;14.00;13.50;13.00
35654;PMS1003;21773;50.010;19.972;2022-07-29T07:48:17;12.00;12.00;11.00
35654;PMS1003;21773;50.010;19.972;2022-07-29T07:51:21;8.60;8.40;7.40
35654;PMS1003;21773;50.010;19.972;2022-07-29T07:54:24;14.40;14.40;13.40
35654;PMS1003;21773;50.010;19.972;2022-07-29T07:57:29;14.00;14.00;13.00
35654;PMS1003;21773;50.010;19.972;2022-07-29T08:00:32;13.60;13.20;12.20
35654;PMS1003;21773;50.010;19.972;2022-07-29T08:03:35;7.80;6.80;6.20
35654;PMS1003;21773;50.010;19.972;2022-07-29T08:06:39;15.60;14.20;14.00
35654;PMS1003;21773;50.010;19.972;2022-07-29T08:09:42;14.00;12.80;11.20
35654;PMS1003;21773;50.010;19.972;2022-07-29T08:12:47;12.20;10.20;10.00
35654;PMS1003;21773;50.010;19.972;2022-07-29T08:15:50;14.00;13.40;13.00
35654;PMS1003;21773;50.010;19.972;2022-07-29T08:18:59;11.40;11.40;10.40
35654;PMS1003;21773;50.010;19.972;2022-07-29T08:22:03;9.00;8.40;7.80
35654;PMS1003;21773;50.010;19.972;2022-07-29T08:25:06;9.00;9.00;8.80
35654;PMS1003;21773;50.010;19.972;2022-07-29T08:28:13;6.00;6.00;5.80
35654;PMS1003;21773;50.010;19.972;2022-07-29T08:31:16;10.00;9.60;9.00
35654;PMS1003;21773;50.010;19.972;2022-07-29T08:34:20;11.00;10.25;10.00
35654;PMS1003;21773;50.010;19.972;2022-07-29T08:37:28;10.00;10.00;10.00
35654;PMS1003;21773;50.010;19.972;2022-07-29T08:40:32;11.75;11.75;10.75
35654;PMS1003;21773;50.010;19.972;2022-07-29T08:43:36;11.25;11.25;11.00
35654;PMS1003;21773;50.010;19.972;2022-07-29T08:46:40;11.50;11.50;10.50
35654;PMS1003;21773;50.010;19.972;2022-07-29T08:49:43;11.00;10.60;10.00
35654;PMS1003;21773;50.010;19.972;2022-07-29T08:52:48;13.40;12.40;12.00
35654;PMS1003;21773;50.010;19.972;2022-07-29T08:55:59;10.00;10.00;9.00
35654;PMS1003;21773;50.010;19.972;2022-07-29T08:59:05;6.20;6.20;6.20
35654;PMS1003;21773;50.010;19.972;2022-07-29T09:02:16;10.00;8.75;8.00
35654;PMS1003;21773;50.010;19.972;2022-07-29T09:05:23;8.00;8.00;7.00
35654;PMS1003;21773;50.010;19.972;2022-07-29T09:08:27;12.00;12.00;11.00
35654;PMS1003;21773;50.010;19.972;2022-07-29T09:11:32;8.33;8.00;8.00
35654;PMS1003;21773;50.010;19.972;2022-07-29T09:14:37;11.00;11.00;10.00
35654;PMS1003;21773;50.010;19.972;2022-07-29T09:17:41;9.20;9.20;8.20
35654;PMS1003;21773;50.010;19.972;2022-07-29T09:20:52;8.00;7.40;7.00
35654;PMS1003;21773;50.010;19.972;2022-07-29T09:24:13;17.00;15.60;15.60
35654;PMS1003;21773;50.010;19.972;2022-07-29T09:27:18;7.80;7.80;7.00
35654;PMS1003;21773;50.010;19.972;2022-07-29T09:30:25;8.80;8.20;7.80
35654;PMS1003;21773;50.010;19.972;2022-07-29T09:33:32;10.40;10.40;10.00
35654;PMS1003;21773;50.010;19.972;2022-07-29T09:36:41;10.60;10.60;9.60
35654;PMS1003;21773;50.010;19.972;2022-07-29T09:39:45;9.40;8.40;8.00
35654;PMS1003;21773;50.010;19.972;2022-07-29T09:42:49;7.00;6.60;6.00
35654;PMS1003;21773;50.010;19.972;2022-07-29T09:45:55;5.50;5.25;4.00
35654;PMS1003;21773;50.010;19.972;2022-07-29T09:49:07;8.60;7.80;7.80
35654;PMS1003;21773;50.010;19.972;2022-07-29T09:52:12;10.00;10.00;9.60
35654;PMS1003;21773;50.010;19.972;2022-07-29T09:55:15;10.60;10.00;9.00
35654;PMS1003;21773;50.010;19.972;2022-07-29T09:58:20;9.20;8.20;8.20
35654;PMS1003;21773;50.010;19.972;2022-07-29T10:01:28;8.00;8.00;7.00
35654;PMS1003;21773;50.010;19.972;2022-07-29T10:04:38;6.60;6.00;5.60
35654;PMS1003;21773;50.010;19.972;2022-07-29T10:07:43;10.00;9.20;9.00
35654;PMS1003;21773;50.010;19.972;2022-07-29T10:11:03;12.00;11.00;10.00
35654;PMS1003;21773;50.010;19.972;2022-07-29T10:14:12;8.25;8.00;8.00
35654;PMS1003;21773;50.010;19.972;2022-07-29T10:17:17;9.50;9.00;8.00
35654;PMS1003;21773;50.010;19.972;2022-07-29T10:20:21;11.00;10.25;10.00
35654;PMS1003;21773;50.010;19.972;2022-07-29T10:23:25;9.80;8.40;8.00
35654;PMS1003;21773;50.010;19.972;2022-07-29T10:26:47;8.00;7.60;7.00
35654;PMS1003;21773;50.010;19.972;2022-07-29T10:29:51;9.40;9.40;9.00
35654;PMS1003;21773;50.010;19.972;2022-07-29T10:33:10;9.50;9.00;8.50
35654;PMS1003;21773;50.010;19.972;2022-07-29T10:36:27;10.00;10.00;10.00
35654;PMS1003;21773;50.010;19.972;2022-07-29T10:39:47;9.00;9.00;8.00
35654;PMS1003;21773;50.010;19.972;2022-07-29T10:42:58;9.60;9.00;9.00
35654;PMS1003;21773;50.010;19.972;2022-07-29T10:46:16;10.00;9.40;9.00
35654;PMS1003;21773;50.010;19.972;2022-07-29T10:49:22;10.00;9.60;9.00
35654;PMS1003;21773;50.010;19.972;2022-07-29T10:52:52;8.80;8.00;7.80
35654;PMS1003;21773;50.010;19.972;2022-07-29T10:55:56;10.00;10.00;10.00
35654;PMS1003;21773;50.010;19.972;2022-07-29T11:02:43;7.00;7.00;7.00
35654;PMS1003;21773;50.010;19.972;2022-07-29T11:05:53;7.40;7.40;6.60
35654;PMS1003;21773;50.010;19.972;2022-07-29T11:09:15;10.00;9.00;8.75
35654;PMS1003;21773;50.010;19.972;2022-07-29T11:15:53;9.00;9.00;8.00
35654;PMS1003;21773;50.010;19.972;2022-07-29T11:22:33;11.00;10.40;10.00
35654;PMS1003;21773;50.010;19.972;2022-07-29T11:25:37;9.00;8.00;8.00
35654;PMS1003;21773;50.010;19.972;2022-07-29T11:28:53;10.00;8.80;8.00
35654;PMS1003;21773;50.010;19.972;2022-07-29T11:32:07;11.00;11.00;10.00
35654;PMS1003;21773;50.010;19.972;2022-07-29T11:35:19;11.00;10.00;10.00
35654;PMS1003;21773;50.010;19.972;2022-07-29T11:38:46;10.00;10.00;9.60
35654;PMS1003;21773;50.010;19.972;2022-07-29T11:41:50;11.00;9.60;9.00
35654;PMS1003;21773;50.010;19.972;2022-07-29T11:44:54;11.00;10.00;10.00
35654;PMS1003;21773;50.010;19.972;2022-07-29T11:47:59;11.50;10.50;9.50
35654;PMS1003;21773;50.010;19.972;2022-07-29T11:51:22;11.00;10.00;10.00
35654;PMS1003;21773;50.010;19.972;2022-07-29T11:54:35;11.40;10.80;10.00
35654;PMS1003;21773;50.010;19.972;2022-07-29T11:58:01;10.00;9.00;9.00
35654;PMS1003;21773;50.010;19.972;2022-07-29T12:01:05;8.80;7.80;7.80
35654;PMS1003;21773;50.010;19.972;2022-07-29T12:04:10;9.00;8.25;8.00
35654;PMS1003;21773;50.010;19.972;2022-07-29T12:07:14;9.00;8.20;7.00
35654;PMS1003;21773;50.010;19.972;2022-07-29T12:10:19;10.60;10.00;9.40
35654;PMS1003;21773;50.010;19.972;2022-07-29T12:13:31;10.00;10.00;10.00
35654;PMS1003;21773;50.010;19.972;2022-07-29T12:16:41;12.00;12.00;12.00
35654;PMS1003;21773;50.010;19.972;2022-07-29T12:19:44;11.00;10.00;10.00
35654;PMS1003;21773;50.010;19.972;2022-07-29T12:22:51;8.00;8.00;7.00
35654;PMS1003;21773;50.010;19.972;2022-07-29T12:25:57;10.00;9.50;9.00
35654;PMS1003;21773;50.010;19.972;2022-07-29T12:29:02;12.00;11.00;10.00
35654;PMS1003;21773;50.010;19.972;2022-07-29T12:32:12;13.20;12.80;12.20
35654;PMS1003;21773;50.010;19.972;2022-07-29T12:35:20;9.40;8.40;8.00
35654;PMS1003;21773;50.010;19.972;2022-07-29T12:38:24;9.25;8.50;8.25
35654;PMS1003;21773;50.010;19.972;2022-07-29T12:41:30;11.25;10.25;10.25
35654;PMS1003;21773;50.010;19.972;2022-07-29T12:44:43;7.20;7.20;7.00
35654;PMS1003;21773;50.010;19.972;2022-07-29T12:47:50;11.25;11.25;11.00
35654;PMS1003;21773;50.010;19.972;2022-07-29T12:50:54;12.00;12.00;11.00
35654;PMS1003;21773;50.010;19.972;2022-07-29T12:54:03;9.00;9.00;9.00
35654;PMS1003;21773;50.010;19.972;2022-07-29T12:57:11;13.40;12.40;12.40
35654;PMS1003;21773;50.010;19.972;2022-07-29T13:00:21;10.00;9.00;8.50
35654;PMS1003;21773;50.010;19.972;2022-07-29T13:03:26;10.00;9.00;9.00
35654;PMS1003;21773;50.010;19.972;2022-07-29T13:06:37;8.00;8.00;7.00
35654;PMS1003;21773;50.010;19.972;2022-07-29T13:09:42;8.00;8.00;7.60
35654;PMS1003;21773;50.010;19.972;2022-07-29T13:13:05;9.00;9.00;8.00
35654;PMS1003;21773;50.010;19.972;2022-07-29T13:16:11;8.00;7.00;6.40
35654;PMS1003;21773;50.010;19.972;2022-07-29T13:19:14;7.80;7.00;6.40
35654;PMS1003;21773;50.010;19.972;2022-07-29T13:22:19;8.00;8.00;8.00
35654;PMS1003;21773;50.010;19.972;2022-07-29T13:25:24;9.25;8.25;8.00
35654;PMS1003;21773;50.010;19.972;2022-07-29T13:28:31;11.00;9.50;9.00
35654;PMS1003;21773;50.010;19.972;2022-07-29T13:31:35;9.00;8.00;7.00
35654;PMS1003;21773;50.010;19.972;2022-07-29T13:34:39;9.00;9.00;8.00
35654;PMS1003;21773;50.010;19.972;2022-07-29T13:37:43;10.40;8.00;8.00
35654;PMS1003;21773;50.010;19.972;2022-07-29T13:40:46;8.00;8.00;7.50
35654;PMS1003;21773;50.010;19.972;2022-07-29T13:43:51;9.00;7.40;7.00
35654;PMS1003;21773;50.010;19.972;2022-07-29T13:46:55;7.80;7.80;6.80
35654;PMS1003;21773;50.010;19.972;2022-07-29T13:50:00;9.00;9.00;9.00
35654;PMS1003;21773;50.010;19.972;2022-07-29T13:53:06;9.00;7.75;7.00
35654;PMS1003;21773;50.010;19.972;2022-07-29T13:56:09;8.00;7.00;6.00
35654;PMS1003;21773;50.010;19.972;2022-07-29T13:59:14;9.40;9.00;8.00
35654;PMS1003;21773;50.010;19.972;2022-07-29T14:02:17;8.60;8.60;8.20
35654;PMS1003;21773;50.010;19.972;2022-07-29T14:05:20;8.00;7.75;6.75
35654;PMS1003;21773;50.010;19.972;2022-07-29T14:08:24;7.50;7.50;7.00
35654;PMS1003;21773;50.010;19.972;2022-07-29T14:11:27;12.00;11.25;11.00
35654;PMS1003;21773;50.010;19.972;2022-07-29T14:14:32;8.00;8.00;7.50
35654;PMS1003;21773;50.010;19.972;2022-07-29T14:17:37;11.00;11.00;10.00
35654;PMS1003;21773;50.010;19.972;2022-07-29T14:20:40;9.75;9.75;8.75
35654;PMS1003;21773;50.010;19.972;2022-07-29T14:23:43;9.00;8.80;8.00
35654;PMS1003;21773;50.010;19.972;2022-07-29T14:26:47;10.00;9.00;8.00
35654;PMS1003;21773;50.010;19.972;2022-07-29T14:29:51;10.00;10.00;9.40
35654;PMS1003;21773;50.010;19.972;2022-07-29T14:32:55;9.00;9.00;8.20
35654;PMS1003;21773;50.010;19.972;2022-07-29T14:35:59;10.00;10.00;9.00
35654;PMS1003;21773;50.010;19.972;2022-07-29T14:39:02;12.00;11.60;10.00
35654;PMS1003;21773;50.010;19.972;2022-07-29T14:42:06;9.50;9.25;8.50
35654;PMS1003;21773;50.010;19.972;2022-07-29T14:45:11;7.80;7.80;7.80
35654;PMS1003;21773;50.010;19.972;2022-07-29T14:48:14;7.00;7.00;6.60
35654;PMS1003;21773;50.010;19.972;2022-07-29T14:51:17;9.60;9.00;8.60
35654;PMS1003;21773;50.010;19.972;2022-07-29T14:54:21;8.00;7.00;7.00
35654;PMS1003;21773;50.010;19.972;2022-07-29T14:57:24;9.00;8.25;7.25
35654;PMS1003;21773;50.010;19.972;2022-07-29T15:00:29;8.20;8.00;7.80
35654;PMS1003;21773;50.010;19.972;2022-07-29T15:03:33;12.00;12.00;11.00
35654;PMS1003;21773;50.010;19.972;2022-07-29T15:06:37;12.40;12.40;11.40
35654;PMS1003;21773;50.010;19.972;2022-07-29T15:09:40;11.60;11.60;10.60
35654;PMS1003;21773;50.010;19.972;2022-07-29T15:12:50;13.40;13.00;12.60
35654;PMS1003;21773;50.010;19.972;2022-07-29T15:15:55;11.00;11.00;9.40
35654;PMS1003;21773;50.010;19.972;2022-07-29T15:19:01;11.25;10.25;9.50
35654;PMS1003;21773;50.010;19.972;2022-07-29T15:22:04;8.00;8.00;7.00
35654;PMS1003;21773;50.010;19.972;2022-07-29T15:25:07;10.00;9.00;8.00
35654;PMS1003;21773;50.010;19.972;2022-07-29T15:28:11;9.00;8.00;7.00
35654;PMS1003;21773;50.010;19.972;2022-07-29T15:31:16;10.00;9.00;9.00
35654;PMS1003;21773;50.010;19.972;2022-07-29T15:34:20;8.00;8.00;7.00
35654;PMS1003;21773;50.010;19.972;2022-07-29T15:37:25;9.00;9.00;9.00
35654;PMS1003;21773;50.010;19.972;2022-07-29T15:40:50;12.00;11.60;10.60
35654;PMS1003;21773;50.010;19.972;2022-07-29T15:43:53;11.00;11.00;10.00
35654;PMS1003;21773;50.010;19.972;2022-07-29T15:46:58;12.00;11.60;11.00
35654;PMS1003;21773;50.010;19.972;2022-07-29T15:50:08;10.00;9.00;8.00
35654;PMS1003;21773;50.010;19.972;2022-07-29T15:53:16;10.00;10.00;10.00
35654;PMS1003;21773;50.010;19.972;2022-07-29T15:56:19;10.80;10.80;10.00
35654;PMS1003;21773;50.010;19.972;2022-07-29T15:59:23;8.00;8.00;7.00
35654;PMS1003;21773;50.010;19.972;2022-07-29T16:02:28;11.00;10.00;9.00
35654;PMS1003;21773;50.010;19.972;2022-07-29T16:05:32;12.00;10.40;10.00
35654;PMS1003;21773;50.010;19.972;2022-07-29T16:08:35;16.40;14.40;14.00
35654;PMS1003;21773;50.010;19.972;2022-07-29T16:11:39;13.00;12.40;11.00
35654;PMS1003;21773;50.010;19.972;2022-07-29T16:14:43;11.20;11.00;10.20
35654;PMS1003;21773;50.010;19.972;2022-07-29T16:17:51;36.00;32.00;26.00
35654;PMS1003;21773;50.010;19.972;2022-07-29T16:20:54;10.25;9.50;8.25
35654;PMS1003;21773;50.010;19.972;2022-07-29T16:23:58;8.60;8.60;8.00
35654;PMS1003;21773;50.010;19.972;2022-07-29T16:27:02;12.50;11.50;10.50
35654;PMS1003;21773;50.010;19.972;2022-07-29T16:30:06;13.40;13.00;12.00
35654;PMS1003;21773;50.010;19.972;2022-07-29T16:33:12;10.00;9.67;9.00
35654;PMS1003;21773;50.010;19.972;2022-07-29T16:36:15;11.75;11.00;10.00
35654;PMS1003;21773;50.010;19.972;2022-07-29T16:39:19;6.50;6.50;6.00
35654;PMS1003;21773;50.010;19.972;2022-07-29T16:42:22;10.00;10.00;9.00
35654;PMS1003;21773;50.010;19.972;2022-07-29T16:45:46;9.00;8.00;8.00
35654;PMS1003;21773;50.010;19.972;2022-07-29T16:48:51;7.20;7.20;7.20
35654;PMS1003;21773;50.010;19.972;2022-07-29T16:51:54;8.00;8.00;8.00
35654;PMS1003;21773;50.010;19.972;2022-07-29T16:54:59;14.00;13.00;12.40
35654;PMS1003;21773;50.010;19.972;2022-07-29T16:58:05;22.67;21.33;19.33
35654;PMS1003;21773;50.010;19.972;2022-07-29T17:01:08;12.75;12.00;11.00
35654;PMS1003;21773;50.010;19.972;2022-07-29T17:04:13;16.75;15.00;14.50
35654;PMS1003;21773;50.010;19.972;2022-07-29T17:07:16;20.00;18.40;17.00
35654;PMS1003;21773;50.010;19.972;2022-07-29T17:10:20;16.40;15.40;14.00
35654;PMS1003;21773;50.010;19.972;2022-07-29T17:13:23;10.00;10.00;9.60
35654;PMS1003;21773;50.010;19.972;2022-07-29T17:16:27;14.40;14.40;13.00
35654;PMS1003;21773;50.010;19.972;2022-07-29T17:19:32;9.80;9.40;9.20
35654;PMS1003;21773;50.010;19.972;2022-07-29T17:22:37;11.00;10.00;9.00
35654;PMS1003;21773;50.010;19.972;2022-07-29T17:25:41;9.60;9.00;9.00
35654;PMS1003;21773;50.010;19.972;2022-07-29T17:28:44;14.00;14.00;13.00
35654;PMS1003;21773;50.010;19.972;2022-07-29T17:31:49;11.40;10.40;10.00
35654;PMS1003;21773;50.010;19.972;2022-07-29T17:34:54;9.00;9.00;8.00